Time;durP1;ratioP1;P1;durP2;ratioP2;P2;SDS_P1;SDS_P2;PMS_P1;PMS_P2;Temp;Humidity;BMP_temperature;BMP_pressure;BME280_temperature;BME280_humidity;BME280_pressure;Samples;Min_cycle;Max_cycle;Signal;HPM_P1;HPM_P2
2021/01/23 00:01:10;;;;;;;21.33;12.43;;;;;;;1.89;100.00;96348.73;3685902;79;44052;-20
2021/01/23 00:06:15;;;;;;;22.57;13.00;;;;;;;1.88;100.00;96340.42;3683335;79;44515;-20
2021/01/23 00:11:21;;;;;;;19.10;10.50;;;;;;;1.89;100.00;96335.45;3688388;79;43441;-21
2021/01/23 00:16:27;;;;;;;15.40;8.73;;;;;;;1.92;100.00;96332.49;3681499;79;44089;-20
2021/01/23 00:21:33;;;;;;;14.23;8.20;;;;;;;1.97;100.00;96325.71;3670978;79;43686;-20
2021/01/23 00:26:38;;;;;;;14.10;8.33;;;;;;;2.01;100.00;96319.58;3651497;80;42896;-20
2021/01/23 00:31:44;;;;;;;14.63;8.77;;;;;;;2.03;100.00;96324.24;3682680;80;44096;-21
2021/01/23 00:36:50;;;;;;;17.50;10.53;;;;;;;2.06;100.00;96323.90;3665046;80;43717;-20
2021/01/23 00:41:56;;;;;;;21.53;12.63;;;;;;;2.06;100.00;96323.90;3679316;80;43384;-20
2021/01/23 00:47:01;;;;;;;19.50;12.10;;;;;;;2.02;100.00;96320.40;3657575;80;43626;-21
2021/01/23 00:52:08;;;;;;;18.10;10.50;;;;;;;1.98;100.00;96307.94;3686767;80;44097;-20
2021/01/23 00:57:14;;;;;;;18.90;10.67;;;;;;;2.02;100.00;96293.36;3660090;79;43439;-19
2021/01/23 01:02:20;;;;;;;20.10;11.37;;;;;;;2.03;100.00;96285.73;3666501;80;43685;-20
2021/01/23 01:07:26;;;;;;;22.80;12.53;;;;;;;2.01;100.00;96283.73;3654166;81;43676;-21
2021/01/23 01:12:32;;;;;;;23.30;13.37;;;;;;;2.03;100.00;96283.08;3677415;80;43490;-20
2021/01/23 01:17:38;;;;;;;24.90;14.27;;;;;;;2.01;100.00;96278.42;3647344;80;44031;-21
2021/01/23 01:22:45;;;;;;;24.13;13.83;;;;;;;1.98;100.00;96278.73;3655674;79;44381;-20
2021/01/23 01:27:51;;;;;;;24.53;14.17;;;;;;;1.98;100.00;96282.71;3666701;79;43319;-20
2021/01/23 01:32:56;;;;;;;23.13;13.40;;;;;;;1.99;100.00;96281.73;3705010;79;43709;-20
2021/01/23 01:38:03;;;;;;;26.53;14.57;;;;;;;1.95;100.00;96282.55;3614213;81;44066;-20
2021/01/23 01:43:09;;;;;;;24.60;14.17;;;;;;;1.91;100.00;96283.84;3704787;79;44079;-20
2021/01/23 01:48:15;;;;;;;26.33;14.50;;;;;;;1.92;100.00;96297.97;3668365;79;43416;-20
2021/01/23 01:53:22;;;;;;;26.93;14.47;;;;;;;1.93;100.00;96300.97;3704973;79;44073;-20
2021/01/23 01:58:28;;;;;;;25.13;14.60;;;;;;;1.94;100.00;96314.58;3667423;79;43420;-20
2021/01/23 02:04:06;;;;;;;25.27;14.30;;;;;;;1.96;100.00;96311.25;3705171;78;44022;-20
2021/01/23 02:09:17;;;;;;;29.23;15.20;;;;;;;1.98;100.00;96318.09;3653707;79;44053;-20
2021/01/23 02:14:26;;;;;;;25.07;14.30;;;;;;;1.97;100.00;96314.23;3705177;78;43337;-20
2021/01/23 02:19:41;;;;;;;24.47;13.70;;;;;;;2.00;100.00;96327.21;3674178;78;44466;-20
2021/01/23 02:24:49;;;;;;;23.37;14.03;;;;;;;1.98;100.00;96321.22;3617733;80;44506;-20
2021/01/23 02:30:18;;;;;;;22.53;12.80;;;;;;;2.02;100.00;96327.03;3652973;79;44194;-20
2021/01/23 02:35:26;;;;;;;21.93;12.57;;;;;;;2.05;100.00;96329.38;3651606;81;43271;-21
2021/01/23 02:40:32;;;;;;;20.63;12.67;;;;;;;2.12;100.00;96319.30;3663646;79;44078;-20
2021/01/23 02:45:37;;;;;;;21.00;12.07;;;;;;;2.22;100.00;96314.34;3684536;79;43978;-20
2021/01/23 02:50:43;;;;;;;17.63;11.13;;;;;;;2.17;100.00;96316.66;3666149;79;44082;-21
2021/01/23 02:55:52;;;;;;;22.10;11.77;;;;;;;2.23;100.00;96312.02;3627746;80;43682;-21
2021/01/23 03:01:00;;;;;;;22.80;12.00;;;;;;;2.14;100.00;96312.00;3669816;79;44212;-21
2021/01/23 03:06:07;;;;;;;18.90;11.37;;;;;;;2.08;100.00;96302.00;3659630;79;44053;-21
2021/01/23 03:11:13;;;;;;;18.77;11.03;;;;;;;2.06;100.00;96303.16;3672051;79;44069;-20
2021/01/23 03:16:19;;;;;;;21.80;12.17;;;;;;;1.96;100.00;96301.47;3674283;78;43988;-20
2021/01/23 03:21:25;;;;;;;21.17;12.83;;;;;;;1.84;100.00;96308.88;3673310;79;43473;-20
2021/01/23 03:26:30;;;;;;;23.33;12.13;;;;;;;1.78;100.00;96290.94;3663434;80;43293;-20
2021/01/23 03:31:37;;;;;;;24.57;13.77;;;;;;;1.68;100.00;96298.19;3669941;80;44263;-20
2021/01/23 03:36:43;;;;;;;24.83;13.93;;;;;;;1.64;100.00;96291.53;3660503;80;43554;-20
2021/01/23 03:41:49;;;;;;;24.73;14.10;;;;;;;1.51;100.00;96286.15;3682133;79;44067;-20
2021/01/23 03:46:54;;;;;;;23.33;13.63;;;;;;;1.40;100.00;96288.25;3667937;79;43628;-20
2021/01/23 03:52:01;;;;;;;24.53;14.83;;;;;;;1.28;100.00;96283.20;3665935;80;44087;-20
2021/01/23 03:57:07;;;;;;;24.30;14.63;;;;;;;1.15;100.00;96285.44;3637546;80;43417;-20
2021/01/23 04:02:13;;;;;;;29.43;15.07;;;;;;;1.03;100.00;96277.73;3641275;80;43220;-20
2021/01/23 04:07:18;;;;;;;27.13;15.67;;;;;;;0.94;100.00;96266.73;3635471;80;44076;-20
2021/01/23 04:12:24;;;;;;;26.87;15.40;;;;;;;0.82;100.00;96271.43;3691956;78;43481;-21
2021/01/23 04:17:30;;;;;;;27.10;14.80;;;;;;;0.83;100.00;96272.25;3661586;79;44047;-21
2021/01/23 04:22:36;;;;;;;30.07;14.97;;;;;;;0.73;100.00;96273.17;3647972;79;44103;-21
2021/01/23 04:27:42;;;;;;;26.67;14.10;;;;;;;0.70;100.00;96270.84;3665091;81;43214;-21
2021/01/23 04:32:48;;;;;;;28.87;15.30;;;;;;;0.70;100.00;96275.30;3706458;78;44083;-21
2021/01/23 04:37:54;;;;;;;26.60;14.37;;;;;;;0.63;100.00;96276.91;3616132;79;43726;-22
2021/01/23 04:43:00;;;;;;;28.80;15.37;;;;;;;0.58;100.00;96287.96;3582320;81;43730;-21
2021/01/23 04:48:08;;;;;;;25.77;13.60;;;;;;;0.44;100.00;96290.63;3663000;79;44047;-21
2021/01/23 04:53:14;;;;;;;22.10;11.97;;;;;;;0.37;100.00;96298.84;3568682;81;44557;-22
2021/01/23 04:58:20;;;;;;;21.13;11.70;;;;;;;0.32;100.00;96309.03;3645499;79;44146;-22
2021/01/23 05:03:26;;;;;;;18.17;9.97;;;;;;;0.29;100.00;96299.08;3696086;79;43644;-22
2021/01/23 05:08:37;;;;;;;20.07;9.13;;;;;;;0.22;100.00;96311.27;3666162;80;43964;-22
2021/01/23 05:13:47;;;;;;;11.77;7.53;;;;;;;0.27;100.00;96318.28;3547524;82;43716;-22
2021/01/23 05:18:57;;;;;;;11.40;7.47;;;;;;;0.27;100.00;96320.93;3644175;79;44211;-22
2021/01/23 05:24:14;;;;;;;10.87;6.97;;;;;;;0.26;100.00;96316.61;3662438;79;43690;-22
2021/01/23 05:29:20;;;;;;;10.00;6.53;;;;;;;0.24;100.00;96313.27;3642777;81;44004;-23
2021/01/23 05:34:31;;;;;;;9.50;5.80;;;;;;;0.26;100.00;96325.88;3697034;80;44111;-23
2021/01/23 05:39:51;;;;;;;9.60;6.03;;;;;;;0.26;100.00;96344.42;3627229;81;43760;-23
2021/01/23 05:45:12;;;;;;;10.67;6.40;;;;;;;0.21;100.00;96353.28;3643209;80;43083;-23
2021/01/23 05:50:18;;;;;;;10.13;6.00;;;;;;;0.18;100.00;96358.87;3646848;80;44023;-24
2021/01/23 05:55:26;;;;;;;10.30;6.00;;;;;;;0.13;100.00;96353.19;3640282;80;43452;-24
2021/01/23 06:00:32;;;;;;;9.30;5.87;;;;;;;0.13;100.00;96355.34;3653022;80;44044;-26
2021/01/23 06:05:38;;;;;;;10.90;6.23;;;;;;;0.09;100.00;96364.58;3684569;80;43696;-26
2021/01/23 06:10:45;;;;;;;12.13;6.73;;;;;;;0.07;100.00;96371.83;3657407;80;44018;-27
2021/01/23 06:15:50;;;;;;;10.67;5.87;;;;;;;0.09;100.00;96375.64;3681139;80;43488;-27
2021/01/23 06:20:59;;;;;;;11.27;7.03;;;;;;;0.06;100.00;96375.95;3641796;79;43129;-27
2021/01/23 06:26:06;;;;;;;9.60;5.60;;;;;;;0.05;100.00;96375.10;3661416;79;44040;-27
2021/01/23 06:31:42;;;;;;;8.87;5.80;;;;;;;0.04;100.00;96381.37;3678942;79;43949;-26
2021/01/23 06:36:48;;;;;;;8.00;4.93;;;;;;;0.06;100.00;96381.25;3685485;79;43632;-27
2021/01/23 06:41:54;;;;;;;10.00;5.57;;;;;;;0.04;100.00;96384.02;3669424;78;45004;-27
2021/01/23 06:47:01;;;;;;;9.80;6.13;;;;;;;0.11;100.00;96393.54;3665766;79;43429;-27
2021/01/23 06:52:11;;;;;;;10.73;6.10;;;;;;;0.09;100.00;96403.44;3692195;79;43676;-27
2021/01/23 06:57:18;;;;;;;7.80;4.50;;;;;;;0.10;100.00;96417.88;3680286;79;43717;-26
2021/01/23 07:02:27;;;;;;;5.50;3.57;;;;;;;0.11;100.00;96427.48;3697947;79;43672;-26
2021/01/23 07:07:37;;;;;;;7.30;5.00;;;;;;;0.13;100.00;96418.06;3659334;79;43692;-27
2021/01/23 07:12:46;;;;;;;4.57;3.37;;;;;;;0.11;100.00;96419.54;3642973;79;44151;-25
2021/01/23 07:17:54;;;;;;;6.00;3.70;;;;;;;0.09;100.00;96416.67;3666118;81;26440;-25
2021/01/23 07:23:02;;;;;;;5.73;3.57;;;;;;;0.12;100.00;96413.74;3704883;78;43682;-25
2021/01/23 07:28:09;;;;;;;5.90;3.70;;;;;;;0.13;100.00;96408.80;3658904;79;44046;-25
2021/01/23 07:33:29;;;;;;;4.93;3.40;;;;;;;0.17;100.00;96403.56;3647042;80;44405;-25
2021/01/23 07:38:36;;;;;;;6.50;3.83;;;;;;;0.16;100.00;96407.19;3587610;81;44447;-26
2021/01/23 07:43:42;;;;;;;5.03;3.30;;;;;;;0.20;100.00;96428.41;3701786;78;43002;-25
2021/01/23 07:48:47;;;;;;;5.70;3.90;;;;;;;0.18;100.00;96441.45;3587732;81;44685;-25
2021/01/23 07:54:25;;;;;;;7.00;4.10;;;;;;;0.17;100.00;96437.13;3660225;80;42879;-25
2021/01/23 07:59:44;;;;;;;8.13;4.03;;;;;;;0.22;100.00;96428.28;3609595;80;44078;-25
2021/01/23 08:04:53;;;;;;;6.40;4.17;;;;;;;0.23;100.00;96430.77;3639799;81;43678;-25
2021/01/23 08:10:08;;;;;;;6.90;4.23;;;;;;;0.25;100.00;96430.61;3669395;79;44004;-25
2021/01/23 08:15:16;;;;;;;6.73;4.00;;;;;;;0.22;100.00;96439.69;3683734;80;44518;-25
2021/01/23 08:20:33;;;;;;;7.13;4.67;;;;;;;0.21;100.00;96441.17;3630466;80;43408;-25
2021/01/23 08:25:42;;;;;;;7.33;4.53;;;;;;;0.15;100.00;96455.83;3705048;78;43397;-25
2021/01/23 08:30:52;;;;;;;7.10;4.30;;;;;;;0.12;100.00;96447.66;3698707;79;43366;-25
2021/01/23 08:36:05;;;;;;;7.73;4.40;;;;;;;0.16;100.00;96448.23;3695992;79;43324;-24
2021/01/23 08:41:11;;;;;;;8.77;5.33;;;;;;;0.18;100.00;96448.89;3500803;82;44148;-24
2021/01/23 08:46:18;;;;;;;28.30;6.87;;;;;;;0.15;100.00;96448.70;3663393;79;43721;-24
2021/01/23 08:51:28;;;;;;;9.53;5.37;;;;;;;0.11;100.00;96461.05;3700557;80;43457;-23
2021/01/23 08:56:35;;;;;;;10.90;5.80;;;;;;;0.08;100.00;96457.36;3659069;79;43979;-23
2021/01/23 09:01:42;;;;;;;12.93;6.27;;;;;;;0.13;100.00;96448.00;3685654;79;43682;-23
2021/01/23 09:06:48;;;;;;;36.90;7.53;;;;;;;0.13;100.00;96459.09;3688680;79;44405;-24
2021/01/23 09:11:56;;;;;;;12.37;7.07;;;;;;;0.12;100.00;96466.70;3645145;79;44110;-24
2021/01/23 09:17:05;;;;;;;12.17;6.63;;;;;;;0.13;100.00;96467.86;3619980;81;43444;-24
2021/01/23 09:22:12;;;;;;;12.97;6.13;;;;;;;0.14;100.00;96462.09;3675419;79;44087;-24
2021/01/23 09:27:18;;;;;;;12.30;6.87;;;;;;;0.15;100.00;96461.94;3675055;78;44074;-23
2021/01/23 09:32:24;;;;;;;12.30;6.53;;;;;;;0.19;100.00;96450.56;3674129;80;43718;-26
2021/01/23 09:37:30;;;;;;;13.60;7.00;;;;;;;0.19;100.00;96454.53;3635517;81;43098;-22
2021/01/23 09:42:37;;;;;;;12.73;6.60;;;;;;;0.16;100.00;96450.88;3545036;81;44042;-23
2021/01/23 09:47:44;;;;;;;14.37;6.10;;;;;;;0.26;100.00;96451.67;3596316;80;44083;-23
2021/01/23 09:52:52;;;;;;;11.47;6.30;;;;;;;0.27;100.00;96458.64;3676939;78;43350;-22
2021/01/23 09:57:59;;;;;;;10.23;5.70;;;;;;;0.38;100.00;96455.45;3648624;80;44112;-24
2021/01/23 10:03:06;;;;;;;12.13;5.30;;;;;;;0.44;100.00;96451.73;3596922;81;43706;-23
2021/01/23 10:08:12;;;;;;;9.43;5.00;;;;;;;0.53;100.00;96453.97;3642485;81;44122;-23
2021/01/23 10:13:18;;;;;;;9.40;5.37;;;;;;;0.56;100.00;96455.02;3695233;80;43694;-23
2021/01/23 10:18:24;;;;;;;9.53;5.17;;;;;;;0.68;100.00;96446.86;3622944;80;43056;-23
2021/01/23 10:23:30;;;;;;;10.27;5.73;;;;;;;0.81;100.00;96441.23;3610578;80;43663;-22
2021/01/23 10:28:38;;;;;;;9.57;6.07;;;;;;;0.88;100.00;96445.75;3639414;79;43387;-22
2021/01/23 10:33:44;;;;;;;9.27;5.00;;;;;;;0.96;100.00;96449.50;3672056;78;43488;-22
2021/01/23 10:38:50;;;;;;;8.90;5.00;;;;;;;1.04;100.00;96448.24;3635419;80;44783;-22
2021/01/23 10:43:55;;;;;;;7.37;4.40;;;;;;;1.07;100.00;96450.09;3636194;80;44470;-20
2021/01/23 10:49:01;;;;;;;8.40;4.73;;;;;;;1.17;100.00;96463.30;3635657;81;44099;-20
2021/01/23 10:54:08;;;;;;;7.20;4.43;;;;;;;1.29;100.00;96449.81;3640163;80;43690;-21
2021/01/23 10:59:13;;;;;;;10.63;5.27;;;;;;;1.47;100.00;96453.28;3636870;80;44095;-21
2021/01/23 11:04:19;;;;;;;8.47;4.30;;;;;;;1.74;100.00;96447.52;3640424;80;45016;-21
2021/01/23 11:09:25;;;;;;;8.07;4.77;;;;;;;2.00;100.00;96432.92;3647020;80;43202;-21
2021/01/23 11:14:33;;;;;;;7.87;5.10;;;;;;;2.29;100.00;96425.13;3641392;80;44142;-20
2021/01/23 11:19:39;;;;;;;8.83;5.17;;;;;;;2.44;100.00;96420.04;3633370;80;44051;-20
2021/01/23 11:24:45;;;;;;;7.80;5.00;;;;;;;2.58;100.00;96420.43;3645948;78;44885;-20
2021/01/23 11:29:50;;;;;;;6.77;4.67;;;;;;;2.54;100.00;96428.38;3666084;81;44149;-20
2021/01/23 11:34:59;;;;;;;5.57;4.23;;;;;;;2.22;100.00;96427.24;3619171;79;44116;-20
2021/01/23 11:40:08;;;;;;;7.53;4.83;;;;;;;2.10;100.00;96430.17;3640243;78;43374;-20
2021/01/23 11:45:16;;;;;;;9.73;5.37;;;;;;;2.03;100.00;96433.13;3704866;79;43734;-21
2021/01/23 11:50:23;;;;;;;7.63;4.70;;;;;;;2.04;100.00;96432.14;3667702;79;43388;-20
2021/01/23 11:55:30;;;;;;;9.43;5.93;;;;;;;2.20;100.00;96424.75;3709190;78;44217;-20
2021/01/23 12:00:36;;;;;;;11.20;6.80;;;;;;;2.44;100.00;96420.04;3670356;79;44172;-21
2021/01/23 12:05:42;;;;;;;8.00;5.30;;;;;;;2.39;100.00;96419.70;3708313;78;43321;-21
2021/01/23 12:10:48;;;;;;;8.43;5.50;;;;;;;2.35;100.00;96414.36;3677994;79;43452;-20
2021/01/23 12:15:54;;;;;;;7.37;5.53;;;;;;;2.31;100.00;96413.00;3642903;79;44038;-21
2021/01/23 12:21:00;;;;;;;8.77;5.50;;;;;;;2.29;100.00;96400.39;3677039;79;43750;-19
2021/01/23 12:26:05;;;;;;;13.70;7.03;;;;;;;2.36;100.00;96391.27;3704273;79;43698;-19
2021/01/23 12:31:11;;;;;;;10.50;5.80;;;;;;;2.33;100.00;96392.94;3682485;79;44070;-19
2021/01/23 12:36:17;;;;;;;8.00;5.60;;;;;;;2.33;100.00;96387.11;3651429;79;43508;-20
2021/01/23 12:41:22;;;;;;;7.20;4.97;;;;;;;2.39;100.00;96379.84;3672514;79;44101;-20
2021/01/23 12:46:29;;;;;;;8.63;5.43;;;;;;;2.41;100.00;96381.81;3666237;81;44049;-20
2021/01/23 12:51:35;;;;;;;8.67;5.90;;;;;;;2.41;100.00;96385.80;3687168;79;43222;-21
2021/01/23 12:56:42;;;;;;;7.93;4.83;;;;;;;2.34;100.00;96379.48;3648507;79;44074;-21
2021/01/23 13:01:49;;;;;;;8.23;4.90;;;;;;;2.40;100.00;96379.33;3689996;79;44149;-20
2021/01/23 13:06:55;;;;;;;9.00;5.67;;;;;;;2.48;100.00;96376.69;3695821;79;43493;-20
2021/01/23 13:12:01;;;;;;;6.73;5.10;;;;;;;2.53;100.00;96374.91;3692223;79;44049;-20
2021/01/23 13:17:07;;;;;;;7.47;4.37;;;;;;;2.81;100.00;96370.64;3666439;79;44097;-20
2021/01/23 13:22:13;;;;;;;8.30;4.53;;;;;;;2.98;100.00;96359.53;3695189;79;43367;-20
2021/01/23 13:27:19;;;;;;;8.20;4.67;;;;;;;3.20;100.00;96364.72;3687720;79;43729;-23
2021/01/23 13:32:26;;;;;;;7.77;4.93;;;;;;;3.28;100.00;96355.39;3734229;77;44091;-22
2021/01/23 13:37:32;;;;;;;7.33;5.00;;;;;;;3.23;100.00;96361.22;3692860;80;43557;-21
2021/01/23 13:42:38;;;;;;;8.37;5.10;;;;;;;3.22;100.00;96358.73;3709724;79;44083;-22
2021/01/23 13:47:44;;;;;;;8.57;5.10;;;;;;;2.99;100.00;96359.39;3692976;79;44058;-22
2021/01/23 13:52:50;;;;;;;8.20;4.70;;;;;;;2.92;100.00;96359.69;3703302;79;43721;-22
2021/01/23 13:57:56;;;;;;;8.67;5.07;;;;;;;2.97;100.00;96365.36;3692750;80;43724;-21
2021/01/23 14:03:02;;;;;;;8.13;4.93;;;;;;;2.69;100.00;96366.96;3700110;79;43399;-21
2021/01/23 14:08:08;;;;;;;10.23;4.90;;;;;;;2.67;100.00;96374.27;3666867;80;43758;-21
2021/01/23 14:13:14;;;;;;;7.23;4.57;;;;;;;2.59;100.00;96380.89;3716030;79;43431;-21
2021/01/23 14:18:20;;;;;;;6.33;4.20;;;;;;;2.63;100.00;96372.95;3688270;79;43443;-21
2021/01/23 14:23:26;;;;;;;6.93;4.20;;;;;;;2.74;100.00;96373.97;3707624;79;43673;-21
2021/01/23 14:28:31;;;;;;;8.43;5.30;;;;;;;2.88;100.00;96365.02;3697945;79;43337;-21
2021/01/23 14:33:38;;;;;;;7.17;5.23;;;;;;;2.94;100.00;96369.67;3756974;78;44058;-21
2021/01/23 14:38:44;;;;;;;7.37;5.03;;;;;;;2.88;100.00;96366.35;3708138;79;44157;-29
2021/01/23 14:43:51;;;;;;;11.27;5.33;;;;;;;2.79;100.00;96364.17;3748035;79;43389;-20
2021/01/23 14:48:57;;;;;;;8.23;5.47;;;;;;;2.96;100.00;96363.70;3792658;77;44097;-20
2021/01/23 14:54:03;;;;;;;7.47;4.97;;;;;;;3.01;100.00;96370.67;3755275;79;44093;-20
2021/01/23 14:59:09;;;;;;;7.70;4.90;;;;;;;3.23;100.00;96369.72;3778311;77;44431;-21
2021/01/23 15:04:15;;;;;;;9.43;5.50;;;;;;;3.23;100.00;96369.72;3648102;80;43689;-21
2021/01/23 15:09:21;;;;;;;6.93;5.37;;;;;;;3.05;100.00;96370.69;3723507;79;43690;-21
2021/01/23 15:14:27;;;;;;;8.07;5.40;;;;;;;2.95;100.00;96367.83;3826584;77;43476;-21
2021/01/23 15:19:33;;;;;;;7.73;5.30;;;;;;;2.80;100.00;96375.63;3708740;79;44050;-21
2021/01/23 15:24:41;;;;;;;8.13;5.63;;;;;;;2.62;100.00;96387.22;3717943;79;44668;-21
2021/01/23 15:29:47;;;;;;;7.63;5.20;;;;;;;2.51;100.00;96381.70;3699058;79;44005;-21
2021/01/23 15:34:52;;;;;;;7.53;5.53;;;;;;;2.38;100.00;96376.84;3757095;79;43980;-21
2021/01/23 15:39:58;;;;;;;7.73;5.37;;;;;;;2.30;100.00;96378.13;3698404;80;43673;-22
2021/01/23 15:45:06;;;;;;;7.93;5.17;;;;;;;2.18;100.00;96374.08;3698394;80;44081;-22
2021/01/23 15:50:14;;;;;;;8.13;5.57;;;;;;;2.03;100.00;96370.72;3699649;79;44017;-24
2021/01/23 15:55:24;;;;;;;9.20;6.43;;;;;;;1.89;100.00;96366.80;3807616;77;43356;-22
2021/01/23 16:00:30;;;;;;;9.00;5.40;;;;;;;1.75;100.00;96372.21;3647240;80;43397;-21
2021/01/23 16:05:37;;;;;;;7.53;5.60;;;;;;;1.64;100.00;96372.47;3707847;79;44062;-21
2021/01/23 16:10:43;;;;;;;9.80;5.00;;;;;;;1.49;100.00;96377.52;3731264;79;43053;-22
2021/01/23 16:15:49;;;;;;;5.73;4.10;;;;;;;1.37;100.00;96371.13;3772321;77;44040;-22
2021/01/23 16:20:55;;;;;;;6.13;3.77;;;;;;;1.29;100.00;96370.23;3671931;80;44054;-22
2021/01/23 16:26:01;;;;;;;6.10;3.70;;;;;;;1.18;100.00;96375.27;3692980;80;43796;-22
2021/01/23 16:31:09;;;;;;;6.23;4.30;;;;;;;1.13;100.00;96373.08;3733393;78;43468;-22
2021/01/23 16:36:16;;;;;;;6.47;4.50;;;;;;;1.06;100.00;96383.46;3829352;77;43444;-23
2021/01/23 16:41:24;;;;;;;6.93;4.30;;;;;;;0.98;100.00;96377.27;3806950;77;43686;-23
2021/01/23 16:46:31;;;;;;;6.87;4.70;;;;;;;0.95;100.00;96369.11;3738257;77;43926;-22
2021/01/23 16:51:37;;;;;;;6.53;4.67;;;;;;;0.90;100.00;96372.22;3696466;79;43713;-22
2021/01/23 16:56:43;;;;;;;5.83;4.27;;;;;;;0.83;100.00;96372.49;3730491;78;43447;-23
2021/01/23 17:01:51;;;;;;;8.50;5.30;;;;;;;0.78;100.00;96369.45;3744875;78;43720;-23
2021/01/23 17:07:00;;;;;;;10.57;6.03;;;;;;;0.68;100.00;96373.98;3796350;77;26759;-23
2021/01/23 17:12:08;;;;;;;12.90;7.77;;;;;;;0.68;100.00;96367.36;3823898;77;43463;-24
2021/01/23 17:17:14;;;;;;;10.80;6.33;;;;;;;0.64;100.00;96363.36;3819566;77;43404;-24
2021/01/23 17:22:22;;;;;;;13.23;7.10;;;;;;;0.51;100.00;96367.20;3790510;77;43914;-22
2021/01/23 17:27:29;;;;;;;9.73;6.40;;;;;;;0.46;100.00;96364.16;3805921;76;44010;-24
2021/01/23 17:32:35;;;;;;;9.07;5.80;;;;;;;0.39;100.00;96363.09;3800353;77;43754;-23
2021/01/23 17:37:42;;;;;;;8.00;5.27;;;;;;;0.27;100.00;96357.16;3781577;77;42867;-23
2021/01/23 17:42:49;;;;;;;8.90;5.80;;;;;;;0.21;100.00;96347.98;3770733;77;43704;-22
2021/01/23 17:47:56;;;;;;;10.73;5.57;;;;;;;0.18;100.00;96340.33;3733966;79;43380;-23
2021/01/23 17:53:03;;;;;;;11.20;6.37;;;;;;;0.21;100.00;96344.52;3729107;78;44324;-23
2021/01/23 17:58:10;;;;;;;14.27;8.37;;;;;;;0.20;100.00;96341.02;3785075;77;44025;-23
2021/01/23 18:03:17;;;;;;;16.67;8.97;;;;;;;0.22;100.00;96336.92;3790011;77;43992;-23
2021/01/23 18:08:25;;;;;;;15.43;8.97;;;;;;;0.19;100.00;96334.05;3786972;77;42880;-23
2021/01/23 18:13:31;;;;;;;13.17;8.30;;;;;;;0.16;100.00;96334.37;3795136;77;43277;-23
2021/01/23 18:18:36;;;;;;;17.03;10.33;;;;;;;0.11;100.00;96322.91;3733811;79;43040;-23
2021/01/23 18:23:42;;;;;;;17.63;10.83;;;;;;;0.05;100.00;96325.30;3765206;78;43170;-23
2021/01/23 18:28:48;;;;;;;14.57;9.63;;;;;;;0.05;100.00;96323.98;3836045;77;44093;-23
2021/01/23 18:33:54;;;;;;;11.57;7.23;;;;;;;-0.02;100.00;96315.30;3699659;79;43397;-23
2021/01/23 18:38:59;;;;;;;13.37;7.50;;;;;;;-0.04;100.00;96316.42;3674160;79;42871;-23
2021/01/23 18:44:06;;;;;;;11.53;7.67;;;;;;;-0.10;100.00;96311.23;3695146;79;44014;-22
2021/01/23 18:49:16;;;;;;;13.10;7.67;;;;;;;-0.18;100.00;96311.95;3706662;76;44030;-23
2021/01/23 18:54:21;;;;;;;14.60;8.73;;;;;;;-0.21;100.00;96303.48;3691274;79;43433;-23
2021/01/23 18:59:26;;;;;;;13.03;7.60;;;;;;;-0.23;100.00;96288.23;3691284;79;44241;-23
2021/01/23 19:04:33;;;;;;;11.97;7.70;;;;;;;-0.24;100.00;96293.19;3645818;79;44125;-22
2021/01/23 19:09:40;;;;;;;12.47;7.97;;;;;;;-0.26;100.00;96285.41;3664488;79;43322;-22
2021/01/23 19:14:46;;;;;;;13.53;8.33;;;;;;;-0.27;100.00;96281.56;3693188;79;43341;-22
2021/01/23 19:19:52;;;;;;;12.90;8.10;;;;;;;-0.27;100.00;96275.80;3650900;80;43433;-22
2021/01/23 19:24:59;;;;;;;12.73;7.67;;;;;;;-0.27;100.00;96269.66;3691385;79;43725;-23
2021/01/23 19:30:07;;;;;;;15.77;8.60;;;;;;;-0.29;100.00;96272.46;3605656;79;44389;-22
2021/01/23 19:35:14;;;;;;;14.10;8.13;;;;;;;-0.34;100.00;96263.64;3667761;79;44106;-23
2021/01/23 19:40:20;;;;;;;17.47;9.10;;;;;;;-0.35;100.00;96269.91;3729069;78;44057;-22
2021/01/23 19:45:28;;;;;;;18.30;9.50;;;;;;;-0.40;100.00;96265.53;3726607;79;43674;-22
2021/01/23 19:50:36;;;;;;;17.27;10.20;;;;;;;-0.42;100.00;96275.45;3700078;78;44053;-22
2021/01/23 19:55:43;;;;;;;22.83;12.10;;;;;;;-0.48;100.00;96262.32;3759458;78;43369;-22
2021/01/23 20:00:49;;;;;;;22.87;11.57;;;;;;;-0.50;100.00;96259.45;3726493;78;43714;-22
2021/01/23 20:05:56;;;;;;;20.57;11.50;;;;;;;-0.49;100.00;96251.87;3722460;78;43676;-22
2021/01/23 20:11:01;;;;;;;21.70;10.80;;;;;;;-0.52;100.00;96256.12;3721898;78;44015;-22
2021/01/23 20:16:08;;;;;;;20.17;11.27;;;;;;;-0.57;100.00;96264.48;3726730;79;44024;-22
2021/01/23 20:21:14;;;;;;;20.90;11.10;;;;;;;-0.62;100.00;96256.17;3696786;78;43972;-22
2021/01/23 20:26:20;;;;;;;24.87;12.23;;;;;;;-0.63;100.00;96261.94;3744431;78;44641;-23
2021/01/23 20:31:26;;;;;;;22.70;12.17;;;;;;;-0.63;100.00;96259.80;3723700;79;43312;-22
2021/01/23 20:36:33;;;;;;;21.37;11.20;;;;;;;-0.69;100.00;96259.88;3700534;80;43682;-21
2021/01/23 20:41:41;;;;;;;23.97;12.23;;;;;;;-0.72;100.00;96249.59;3656455;80;43430;-21
2021/01/23 20:46:46;;;;;;;24.03;12.60;;;;;;;-0.74;100.00;96243.61;3707380;79;44018;-21
2021/01/23 20:51:54;;;;;;;27.60;13.60;;;;;;;-0.79;100.00;96231.33;3711003;79;43265;-22
2021/01/23 20:57:02;;;;;;;26.57;13.57;;;;;;;-0.85;100.00;96227.92;3708892;79;43348;-22
2021/01/23 21:02:09;;;;;;;24.03;12.67;;;;;;;-0.90;100.00;96220.93;3702473;79;42749;-22
2021/01/23 21:07:15;;;;;;;24.37;12.23;;;;;;;-0.92;100.00;96217.59;3720559;79;43516;-22
2021/01/23 21:12:21;;;;;;;25.43;12.67;;;;;;;-0.93;100.00;96214.09;3711726;79;43473;-22
2021/01/23 21:17:28;;;;;;;23.63;13.10;;;;;;;-0.98;100.00;96210.57;3722809;79;43363;-22
2021/01/23 21:22:35;;;;;;;26.07;13.47;;;;;;;-0.96;100.00;96211.27;3711647;79;43482;-22
2021/01/23 21:27:41;;;;;;;22.23;12.30;;;;;;;-1.01;100.00;96208.70;3691867;79;42912;-23
2021/01/23 21:32:48;;;;;;;23.73;12.63;;;;;;;-1.00;100.00;96217.80;3720739;78;43414;-22
2021/01/23 21:37:54;;;;;;;20.60;10.73;;;;;;;-1.02;100.00;96220.25;3709468;79;43698;-22
2021/01/23 21:43:00;;;;;;;21.90;12.07;;;;;;;-1.05;100.00;96225.34;3715536;78;43715;-22
2021/01/23 21:48:07;;;;;;;23.07;11.43;;;;;;;-1.06;100.00;96227.64;3744675;78;44049;-22
2021/01/23 21:53:13;;;;;;;20.70;11.30;;;;;;;-1.02;100.00;96228.18;3729435;78;43684;-22
2021/01/23 21:58:19;;;;;;;21.17;11.27;;;;;;;-0.99;100.00;96222.62;3707054;79;44689;-22
2021/01/23 22:03:25;;;;;;;20.73;11.27;;;;;;;-0.95;100.00;96216.08;3714356;78;44041;-22
2021/01/23 22:08:31;;;;;;;20.93;11.10;;;;;;;-0.95;100.00;96224.01;3744104;78;43328;-22
2021/01/23 22:13:37;;;;;;;20.90;11.27;;;;;;;-0.97;100.00;96221.48;3729665;78;43745;-22
2021/01/23 22:18:48;;;;;;;19.53;10.63;;;;;;;-0.98;100.00;96208.43;3704528;79;42957;-22
2021/01/23 22:23:52;;;;;;;19.47;10.67;;;;;;;-1.00;100.00;96197.98;3727967;78;44091;-22
2021/01/23 22:28:58;;;;;;;18.30;9.60;;;;;;;-1.00;100.00;96198.48;3704163;79;43434;-22
2021/01/23 22:34:04;;;;;;;19.27;9.93;;;;;;;-1.02;100.00;96205.25;3712378;78;43098;-21
2021/01/23 22:39:09;;;;;;;16.90;9.60;;;;;;;-1.02;100.00;96185.42;3698564;80;43447;-21
2021/01/23 22:44:15;;;;;;;18.30;9.57;;;;;;;-1.02;100.00;96189.39;3720543;79;44060;-21
2021/01/23 22:49:22;;;;;;;17.80;9.80;;;;;;;-1.03;100.00;96183.77;3683629;80;43710;-20
2021/01/23 22:54:30;;;;;;;19.07;10.20;;;;;;;-1.08;100.00;96176.73;3708986;79;44075;-22
2021/01/23 22:59:35;;;;;;;18.50;9.60;;;;;;;-1.09;100.00;96173.28;3589503;82;44083;-20
2021/01/23 23:04:42;;;;;;;21.83;10.90;;;;;;;-1.15;100.00;96164.59;3732933;79;43278;-21
2021/01/23 23:09:49;;;;;;;20.77;10.80;;;;;;;-1.14;100.00;96160.16;3707246;80;43400;-21
2021/01/23 23:14:55;;;;;;;18.47;10.17;;;;;;;-1.18;100.00;96159.62;3714204;79;43692;-21
2021/01/23 23:20:01;;;;;;;19.50;10.40;;;;;;;-1.22;100.00;96154.73;3707870;80;43716;-21
2021/01/23 23:25:09;;;;;;;18.10;10.37;;;;;;;-1.21;100.00;96149.33;3713466;79;43718;-20
2021/01/23 23:30:18;;;;;;;19.63;10.27;;;;;;;-1.19;100.00;96147.38;3591234;81;43378;-20
2021/01/23 23:35:24;;;;;;;21.27;10.57;;;;;;;-1.19;100.00;96138.61;3718888;79;43477;-20
2021/01/23 23:40:30;;;;;;;21.43;10.47;;;;;;;-1.19;100.00;96146.53;3714312;79;43630;-20
2021/01/23 23:45:36;;;;;;;19.63;10.70;;;;;;;-1.16;100.00;96135.18;3709382;79;43453;-20